createdAt,value
2023-04-09T00:00:43.150Z,61.83
2023-04-09T00:03:09.991Z,61.96
2023-04-09T00:05:40.693Z,62.30
2023-04-09T00:08:07.917Z,62.57
2023-04-09T00:10:34.796Z,62.00
2023-04-09T00:13:01.556Z,62.64
2023-04-09T00:15:31.505Z,62.27
2023-04-09T00:17:58.801Z,62.25
2023-04-09T00:20:25.631Z,62.31
2023-04-09T00:22:52.437Z,62.17
2023-04-09T00:25:20.180Z,62.67
2023-04-09T00:27:47.188Z,62.77
2023-04-09T00:30:13.963Z,62.38
2023-04-09T00:32:41.099Z,62.35
2023-04-09T00:35:08.868Z,62.21
2023-04-09T00:37:35.898Z,62.25
2023-04-09T00:40:02.619Z,62.40
2023-04-09T00:42:37.541Z,62.55
2023-04-09T00:45:06.097Z,63.04
2023-04-09T00:47:34.478Z,62.85
2023-04-09T00:50:02.656Z,63.31
2023-04-09T00:52:32.580Z,63.63
2023-04-09T00:55:01.305Z,63.27
2023-04-09T00:57:28.911Z,62.87
2023-04-09T00:59:56.073Z,63.30
2023-04-09T01:02:23.003Z,63.11
2023-04-09T01:04:51.411Z,63.30
2023-04-09T01:07:32.094Z,62.94
2023-04-09T01:10:24.411Z,63.24
2023-04-09T01:13:15.921Z,63.22
2023-04-09T01:15:48.606Z,63.11
2023-04-09T01:18:36.951Z,63.13
2023-04-09T01:21:10.038Z,62.75
2023-04-09T01:23:52.376Z,62.91
2023-04-09T01:26:53.775Z,62.85
2023-04-09T01:29:25.755Z,63.07
2023-04-09T01:31:55.715Z,62.74
2023-04-09T01:34:22.801Z,62.72
2023-04-09T01:36:54.384Z,62.35
2023-04-09T01:39:21.840Z,62.33
2023-04-09T01:41:50.457Z,62.26
2023-04-09T01:44:18.805Z,62.63
2023-04-09T01:46:48.450Z,62.61
2023-04-09T01:49:16.122Z,62.10
2023-04-09T01:51:43.545Z,62.08
2023-04-09T01:54:10.555Z,62.55
2023-04-09T01:56:44.609Z,62.64
2023-04-09T01:59:11.898Z,62.58
2023-04-09T02:01:46.975Z,62.83
2023-04-09T02:04:22.956Z,62.80
2023-04-09T02:06:59.699Z,63.01
2023-04-09T02:09:30.667Z,62.93
2023-04-09T02:12:01.864Z,62.40
2023-04-09T02:14:29.323Z,62.19
2023-04-09T02:16:56.554Z,62.39
2023-04-09T02:19:23.317Z,62.50
2023-04-09T02:21:49.929Z,62.62
2023-04-09T02:24:16.732Z,63.03
2023-04-09T02:26:43.403Z,62.95
2023-04-09T02:29:10.113Z,62.80
2023-04-09T02:31:36.852Z,62.82
2023-04-09T02:34:03.561Z,62.75
2023-04-09T02:36:31.256Z,62.56
2023-04-09T02:38:57.842Z,62.75
2023-04-09T02:41:24.989Z,62.13
2023-04-09T02:43:51.990Z,62.19
2023-04-09T02:46:18.901Z,62.16
2023-04-09T02:48:45.801Z,62.43
2023-04-09T02:51:12.427Z,62.39
2023-04-09T02:53:40.810Z,62.67
2023-04-09T02:56:07.723Z,62.52
2023-04-09T02:58:34.456Z,62.49
2023-04-09T03:01:01.259Z,63.00
2023-04-09T03:03:28.200Z,63.08
2023-04-09T03:05:55.016Z,63.75
2023-04-09T03:08:21.652Z,63.71
2023-04-09T03:10:48.492Z,63.47
2023-04-09T03:13:15.407Z,62.94
2023-04-09T03:15:42.150Z,63.12
2023-04-09T03:18:08.948Z,62.87
2023-04-09T03:20:39.654Z,63.01
2023-04-09T03:23:07.322Z,62.74
2023-04-09T03:25:38.680Z,62.81
2023-04-09T03:28:11.667Z,62.70
2023-04-09T03:30:41.824Z,63.04
2023-04-09T03:33:08.961Z,62.75
2023-04-09T03:35:44.498Z,62.78
2023-04-09T03:38:12.446Z,62.98
2023-04-09T03:40:39.440Z,63.05
2023-04-09T03:43:06.082Z,62.72
2023-04-09T03:45:33.383Z,63.20
2023-04-09T03:48:11.497Z,63.66
2023-04-09T03:50:40.667Z,63.78
2023-04-09T03:53:08.058Z,63.31
2023-04-09T03:55:35.301Z,63.41
2023-04-09T03:58:03.449Z,63.84
2023-04-09T04:00:31.888Z,63.66
2023-04-09T04:03:18.988Z,63.32
2023-04-09T04:06:11.610Z,63.26
2023-04-09T04:08:45.396Z,62.91
2023-04-09T04:11:12.439Z,62.85
2023-04-09T04:13:39.545Z,62.80
2023-04-09T04:16:09.672Z,62.78
2023-04-09T04:18:37.448Z,62.79
2023-04-09T04:21:04.547Z,62.85
2023-04-09T04:23:31.816Z,62.71
2023-04-09T04:26:10.171Z,62.82
2023-04-09T04:28:40.795Z,62.63
2023-04-09T04:31:13.051Z,63.08
2023-04-09T04:33:41.805Z,63.32
2023-04-09T04:36:13.551Z,62.99
2023-04-09T04:38:47.168Z,62.82
2023-04-09T04:41:21.481Z,62.84
2023-04-09T04:43:53.571Z,62.59
2023-04-09T04:46:22.644Z,62.40
2023-04-09T04:48:49.690Z,62.62
2023-04-09T04:51:16.916Z,61.72
2023-04-09T04:53:49.358Z,62.43
2023-04-09T04:56:16.413Z,62.33
2023-04-09T04:58:52.867Z,62.65
2023-04-09T05:01:20.518Z,62.99
2023-04-09T05:03:47.677Z,62.87
2023-04-09T05:06:33.679Z,63.38
2023-04-09T05:09:02.415Z,63.28
2023-04-09T05:11:36.031Z,63.14
2023-04-09T05:14:07.460Z,62.92
2023-04-09T05:16:34.276Z,62.94
2023-04-09T05:19:03.762Z,62.82
2023-04-09T05:21:31.907Z,62.53
2023-04-09T05:24:00.145Z,62.23
2023-04-09T05:26:30.029Z,61.92
2023-04-09T05:28:58.167Z,61.90
2023-04-09T05:31:25.807Z,61.18
2023-04-09T05:33:55.998Z,61.84
2023-04-09T05:36:30.551Z,61.25
2023-04-09T05:38:57.170Z,60.96
2023-04-09T05:41:23.848Z,60.89
2023-04-09T05:44:02.650Z,60.97
2023-04-09T05:46:29.756Z,60.16
2023-04-09T05:48:56.761Z,60.11
2023-04-09T05:51:24.275Z,60.47
2023-04-09T05:53:51.511Z,60.66
2023-04-09T05:56:18.240Z,60.49
2023-04-09T05:58:50.393Z,60.39
2023-04-09T06:01:17.536Z,60.35
2023-04-09T06:03:44.501Z,61.11
2023-04-09T06:06:11.456Z,61.01
2023-04-09T06:08:38.280Z,61.12
2023-04-09T06:11:10.483Z,60.86
2023-04-09T06:13:37.491Z,60.63
2023-04-09T06:16:08.730Z,60.67
2023-04-09T06:18:37.022Z,60.95
2023-04-09T06:21:04.798Z,60.46
2023-04-09T06:23:33.110Z,60.03
2023-04-09T06:26:00.463Z,59.70
2023-04-09T06:28:29.074Z,59.99
2023-04-09T06:30:55.753Z,59.74
2023-04-09T06:33:22.752Z,58.73
2023-04-09T06:35:50.069Z,58.04
2023-04-09T06:38:17.703Z,57.43
2023-04-09T06:40:44.751Z,56.40
2023-04-09T06:43:11.387Z,56.69
2023-04-09T06:45:48.460Z,56.33
2023-04-09T06:48:15.493Z,56.38
2023-04-09T06:50:42.133Z,55.70
2023-04-09T06:53:08.904Z,55.58
2023-04-09T06:55:35.839Z,55.82
2023-04-09T06:58:03.000Z,55.36
2023-04-09T07:00:31.369Z,55.13
2023-04-09T07:02:58.277Z,54.68
2023-04-09T07:05:25.297Z,54.70
2023-04-09T07:07:52.008Z,54.69
2023-04-09T07:10:18.693Z,54.63
2023-04-09T07:12:45.495Z,54.44
2023-04-09T07:15:12.122Z,54.24
2023-04-09T07:17:38.908Z,54.24
2023-04-09T07:20:06.329Z,54.14
2023-04-09T07:22:33.060Z,54.13
2023-04-09T07:24:59.812Z,54.32
2023-04-09T07:27:27.939Z,53.99
2023-04-09T07:29:59.150Z,53.62
2023-04-09T07:32:28.353Z,53.54
2023-04-09T07:34:55.928Z,53.28
2023-04-09T07:37:23.251Z,52.76
2023-04-09T07:39:51.334Z,52.69
2023-04-09T07:42:18.373Z,52.35
2023-04-09T07:44:45.012Z,52.63
2023-04-09T07:47:12.889Z,52.31
2023-04-09T07:49:40.035Z,52.28
2023-04-09T07:52:07.063Z,52.27
2023-04-09T07:54:34.827Z,52.06
2023-04-09T07:57:02.262Z,51.58
2023-04-09T07:59:29.716Z,51.50
2023-04-09T08:01:56.581Z,51.27
2023-04-09T08:04:23.619Z,50.83
2023-04-09T08:06:51.480Z,50.83
2023-04-09T08:09:18.581Z,50.87
2023-04-09T08:11:45.898Z,50.21
2023-04-09T08:14:15.637Z,50.23
2023-04-09T08:16:47.819Z,49.84
2023-04-09T08:19:16.475Z,50.19
2023-04-09T08:21:43.825Z,49.90
2023-04-09T08:24:12.139Z,49.41
2023-04-09T08:26:39.896Z,49.55
2023-04-09T08:29:07.862Z,49.75
2023-04-09T08:31:36.697Z,49.62
2023-04-09T08:34:03.882Z,49.03
2023-04-09T08:36:31.739Z,49.00
2023-04-09T08:39:00.555Z,48.71
2023-04-09T08:41:29.349Z,48.89
2023-04-09T08:43:58.694Z,48.08
2023-04-09T08:46:26.743Z,47.61
2023-04-09T08:48:54.354Z,47.93
2023-04-09T08:51:23.564Z,47.90
2023-04-09T08:53:55.479Z,47.42
2023-04-09T08:56:22.488Z,47.13
2023-04-09T08:58:49.140Z,47.23
2023-04-09T09:01:24.560Z,46.51
2023-04-09T09:03:59.530Z,45.66
2023-04-09T09:06:30.114Z,45.67
2023-04-09T09:09:01.929Z,45.84
2023-04-09T09:11:30.302Z,45.49
2023-04-09T09:14:02.323Z,45.43
2023-04-09T09:16:29.877Z,45.42
2023-04-09T09:18:57.343Z,45.06
2023-04-09T09:21:26.320Z,45.11
2023-04-09T09:23:53.209Z,44.78
2023-04-09T09:26:24.705Z,45.36
2023-04-09T09:28:52.595Z,44.50
2023-04-09T09:31:21.322Z,44.59
2023-04-09T09:33:49.239Z,44.05
2023-04-09T09:36:16.722Z,43.91
2023-04-09T09:38:53.469Z,43.95
2023-04-09T09:41:20.654Z,44.22
2023-04-09T09:43:48.270Z,44.17
2023-04-09T09:46:15.867Z,44.11
2023-04-09T09:48:44.054Z,44.37
2023-04-09T09:51:12.834Z,44.04
2023-04-09T09:53:43.511Z,43.90
2023-04-09T09:56:15.701Z,44.23
2023-04-09T09:58:48.916Z,43.72
2023-04-09T10:01:19.884Z,44.29
2023-04-09T10:03:50.093Z,43.72
2023-04-09T10:06:17.072Z,43.77
2023-04-09T10:08:44.229Z,43.91
2023-04-09T10:11:10.925Z,43.57
2023-04-09T10:13:56.132Z,43.55
2023-04-09T10:16:23.424Z,43.50
2023-04-09T10:18:51.405Z,43.59
2023-04-09T10:21:24.059Z,43.52
2023-04-09T10:23:52.115Z,43.11
2023-04-09T10:26:20.125Z,42.50
2023-04-09T10:28:47.376Z,42.19
2023-04-09T10:31:14.456Z,41.74
2023-04-09T10:33:43.660Z,41.26
2023-04-09T10:36:12.609Z,41.37
2023-04-09T10:38:41.670Z,41.52
2023-04-09T10:41:15.176Z,41.38
2023-04-09T10:43:42.797Z,41.42
2023-04-09T10:46:40.615Z,41.81
2023-04-09T10:49:21.107Z,41.61
2023-04-09T10:52:11.592Z,41.91
2023-04-09T10:54:39.066Z,42.39
2023-04-09T10:57:08.923Z,42.75
2023-04-09T10:59:37.152Z,42.80
2023-04-09T11:02:27.297Z,42.52
2023-04-09T11:05:16.640Z,42.49
2023-04-09T11:07:58.161Z,42.31
2023-04-09T11:10:25.019Z,42.55
2023-04-09T11:12:51.765Z,42.79
2023-04-09T11:15:19.606Z,42.91
2023-04-09T11:17:47.742Z,42.33
2023-04-09T11:20:17.023Z,41.98
2023-04-09T11:22:43.758Z,41.73
2023-04-09T11:25:10.416Z,41.27
2023-04-09T11:27:46.830Z,40.77
2023-04-09T11:30:13.957Z,40.10
2023-04-09T11:32:41.020Z,39.86
2023-04-09T11:35:15.183Z,39.77
2023-04-09T11:37:43.903Z,39.71
2023-04-09T11:40:24.571Z,40.33
2023-04-09T11:42:55.635Z,40.51
2023-04-09T11:45:27.672Z,40.68
2023-04-09T11:47:55.078Z,40.76
2023-04-09T11:50:22.864Z,41.03
2023-04-09T11:52:50.770Z,41.70
2023-04-09T11:55:25.793Z,42.31
2023-04-09T11:57:57.475Z,42.86
2023-04-09T12:00:25.143Z,44.23
2023-04-09T12:03:01.520Z,44.79
2023-04-09T12:05:31.261Z,45.01
2023-04-09T12:08:05.090Z,45.82
2023-04-09T12:10:34.486Z,46.87
2023-04-09T12:13:10.456Z,46.46
2023-04-09T12:15:38.859Z,46.24
2023-04-09T12:18:09.157Z,46.42
2023-04-09T12:20:41.942Z,46.16
2023-04-09T12:23:10.176Z,44.86
2023-04-09T12:25:41.854Z,43.93
2023-04-09T12:28:11.237Z,43.43
2023-04-09T12:30:38.259Z,42.75
2023-04-09T12:33:05.877Z,41.97
2023-04-09T12:35:34.637Z,42.45
2023-04-09T12:38:01.684Z,41.94
2023-04-09T12:40:28.340Z,42.12
2023-04-09T12:42:55.036Z,41.56
2023-04-09T12:45:22.260Z,40.88
2023-04-09T12:47:49.656Z,39.93
2023-04-09T12:50:16.753Z,40.02
2023-04-09T12:52:44.461Z,40.17
2023-04-09T12:55:12.293Z,40.38
2023-04-09T12:57:40.376Z,39.53
2023-04-09T13:00:08.250Z,39.53
2023-04-09T13:02:35.638Z,39.11
2023-04-09T13:05:03.207Z,38.27
2023-04-09T13:07:30.494Z,37.68
2023-04-09T13:09:57.482Z,37.43
2023-04-09T13:12:25.468Z,36.84
2023-04-09T13:14:54.502Z,37.11
2023-04-09T13:17:22.123Z,37.54
2023-04-09T13:19:50.377Z,37.50
2023-04-09T13:22:17.585Z,37.43
2023-04-09T13:24:44.344Z,37.32
2023-04-09T13:27:11.401Z,37.16
2023-04-09T13:29:38.912Z,37.36
2023-04-09T13:32:11.397Z,37.27
2023-04-09T13:34:39.369Z,37.71
2023-04-09T13:37:06.799Z,38.01
2023-04-09T13:39:33.665Z,38.39
2023-04-09T13:42:02.515Z,38.42
2023-04-09T13:44:32.707Z,38.33
2023-04-09T13:46:59.414Z,38.66
2023-04-09T13:49:27.626Z,38.64
2023-04-09T13:51:55.758Z,38.61
2023-04-09T13:54:22.334Z,38.74
2023-04-09T13:56:50.795Z,39.06
2023-04-09T13:59:17.422Z,39.11
2023-04-09T14:01:44.642Z,38.58
2023-04-09T14:04:11.939Z,38.72
2023-04-09T14:06:38.865Z,38.89
2023-04-09T14:09:05.679Z,38.65
2023-04-09T14:11:32.338Z,38.86
2023-04-09T14:13:58.971Z,38.86
2023-04-09T14:16:25.779Z,38.64
2023-04-09T14:18:52.933Z,38.54
2023-04-09T14:21:19.945Z,38.86
2023-04-09T14:23:46.673Z,39.18
2023-04-09T14:26:13.716Z,39.16
2023-04-09T14:28:40.415Z,39.36
2023-04-09T14:31:07.233Z,39.58
2023-04-09T14:33:34.669Z,39.70
2023-04-09T14:36:01.344Z,40.06
2023-04-09T14:38:28.140Z,40.31
2023-04-09T14:40:54.847Z,40.27
2023-04-09T14:43:21.500Z,40.90
2023-04-09T14:45:48.245Z,41.79
2023-04-09T14:48:15.099Z,41.88
2023-04-09T14:50:43.140Z,42.58
2023-04-09T14:53:10.225Z,43.74
2023-04-09T14:55:36.897Z,44.06
2023-04-09T14:58:04.693Z,44.97
2023-04-09T15:00:32.115Z,45.82
2023-04-09T15:03:00.431Z,46.58
2023-04-09T15:05:27.355Z,47.22
2023-04-09T15:07:55.932Z,47.92
2023-04-09T15:10:22.848Z,47.27
2023-04-09T15:12:49.679Z,46.67
2023-04-09T15:15:16.459Z,46.97
2023-04-09T15:17:43.189Z,47.55
2023-04-09T15:20:11.321Z,48.25
2023-04-09T15:22:38.098Z,50.47
2023-04-09T15:25:05.558Z,50.98
2023-04-09T15:27:32.767Z,52.01
2023-04-09T15:29:59.518Z,52.97
2023-04-09T15:32:26.288Z,53.11
2023-04-09T15:34:52.928Z,52.81
2023-04-09T15:37:20.572Z,51.59
2023-04-09T15:39:47.262Z,52.36
2023-04-09T15:42:20.254Z,53.89
2023-04-09T15:44:47.037Z,55.29
2023-04-09T15:47:13.850Z,56.20
2023-04-09T15:49:40.822Z,58.05
2023-04-09T15:52:07.416Z,59.15
2023-04-09T15:54:34.212Z,59.79
2023-04-09T15:57:00.943Z,60.59
2023-04-09T15:59:27.689Z,60.61
2023-04-09T16:01:54.361Z,59.34
2023-04-09T16:04:21.393Z,58.47
2023-04-09T16:06:48.241Z,57.66
2023-04-09T16:09:15.182Z,57.72
2023-04-09T16:11:41.969Z,57.48
2023-04-09T16:14:09.341Z,57.63
2023-04-09T16:16:37.169Z,57.38
2023-04-09T16:19:03.947Z,57.21
2023-04-09T16:21:31.198Z,56.86
2023-04-09T16:23:57.925Z,56.66
2023-04-09T16:26:24.673Z,56.88
2023-04-09T16:28:51.777Z,56.68
2023-04-09T16:31:18.846Z,56.35
2023-04-09T16:33:45.840Z,56.28
2023-04-09T16:36:12.640Z,56.44
2023-04-09T16:38:39.472Z,55.93
2023-04-09T16:41:06.582Z,56.02
2023-04-09T16:43:33.437Z,56.07
2023-04-09T16:46:00.637Z,56.44
2023-04-09T16:48:27.422Z,56.43
2023-04-09T16:50:55.195Z,56.50
2023-04-09T16:53:22.550Z,56.82
2023-04-09T16:55:50.144Z,57.06
2023-04-09T16:58:16.946Z,57.14
2023-04-09T17:00:46.096Z,57.35
2023-04-09T17:03:13.893Z,57.30
2023-04-09T17:05:40.976Z,57.56
2023-04-09T17:08:07.742Z,58.22
2023-04-09T17:10:36.795Z,58.35
2023-04-09T17:13:03.659Z,58.59
2023-04-09T17:15:30.372Z,58.34
2023-04-09T17:17:58.498Z,58.70
2023-04-09T17:20:26.554Z,58.45
2023-04-09T17:22:53.181Z,58.76
2023-04-09T17:25:20.746Z,58.31
2023-04-09T17:27:47.510Z,58.24
2023-04-09T17:30:14.433Z,58.28
2023-04-09T17:32:41.372Z,58.65
2023-04-09T17:35:08.513Z,58.55
2023-04-09T17:37:35.807Z,57.23
2023-04-09T17:40:03.462Z,56.75
2023-04-09T17:42:31.219Z,55.66
2023-04-09T17:44:57.926Z,55.81
2023-04-09T17:47:24.720Z,55.36
2023-04-09T17:49:52.770Z,55.08
2023-04-09T17:52:20.596Z,55.06
2023-04-09T17:54:47.339Z,55.49
2023-04-09T17:57:14.024Z,56.44
2023-04-09T17:59:41.112Z,56.16
2023-04-09T18:02:08.048Z,57.06
2023-04-09T18:04:35.738Z,57.10
2023-04-09T18:07:03.978Z,57.23
2023-04-09T18:09:31.048Z,56.29
2023-04-09T18:11:59.322Z,55.52
2023-04-09T18:14:26.020Z,54.84
2023-04-09T18:16:52.616Z,54.75
2023-04-09T18:19:19.372Z,54.31
2023-04-09T18:21:46.654Z,54.13
2023-04-09T18:24:13.344Z,53.85
2023-04-09T18:26:40.059Z,53.77
2023-04-09T18:29:10.107Z,53.59
2023-04-09T18:31:37.089Z,53.81
2023-04-09T18:34:03.843Z,53.58
2023-04-09T18:36:30.520Z,54.07
2023-04-09T18:38:58.329Z,53.97
2023-04-09T18:41:26.955Z,54.23
2023-04-09T18:43:54.149Z,54.67
2023-04-09T18:46:20.950Z,55.16
2023-04-09T18:48:47.719Z,55.81
2023-04-09T18:51:14.613Z,56.17
2023-04-09T18:53:42.244Z,56.32
2023-04-09T18:56:09.471Z,56.26
2023-04-09T18:58:36.733Z,56.45
2023-04-09T19:01:12.773Z,56.36
2023-04-09T19:03:40.688Z,56.48
2023-04-09T19:06:18.322Z,56.85
2023-04-09T19:08:46.568Z,56.79
2023-04-09T19:11:14.550Z,56.86
2023-04-09T19:13:41.379Z,56.91
2023-04-09T19:16:10.899Z,57.08
2023-04-09T19:18:37.945Z,57.14
2023-04-09T19:21:08.459Z,57.14
2023-04-09T19:23:35.328Z,57.32
2023-04-09T19:26:03.251Z,57.45
2023-04-09T19:28:30.295Z,57.48
2023-04-09T19:30:58.594Z,57.60
2023-04-09T19:33:30.735Z,58.10
2023-04-09T19:35:57.462Z,58.12
2023-04-09T19:38:24.276Z,58.18
2023-04-09T19:40:51.002Z,58.27
2023-04-09T19:43:17.818Z,58.10
2023-04-09T19:45:44.886Z,58.20
2023-04-09T19:48:12.873Z,58.18
2023-04-09T19:50:46.504Z,58.39
2023-04-09T19:53:13.237Z,58.63
2023-04-09T19:55:39.917Z,58.75
2023-04-09T19:58:07.244Z,58.99
2023-04-09T20:00:34.558Z,58.81
2023-04-09T20:03:01.562Z,58.93
2023-04-09T20:05:29.484Z,58.69
2023-04-09T20:07:56.875Z,59.00
2023-04-09T20:10:23.742Z,59.09
2023-04-09T20:12:51.371Z,58.60
2023-04-09T20:15:20.127Z,58.73
2023-04-09T20:17:48.399Z,58.53
2023-04-09T20:20:20.097Z,58.87
2023-04-09T20:22:54.928Z,58.89
2023-04-09T20:25:23.071Z,58.91
2023-04-09T20:27:49.916Z,58.85
2023-04-09T20:30:17.140Z,59.09
2023-04-09T20:32:43.895Z,59.21
2023-04-09T20:35:12.831Z,58.87
2023-04-09T20:37:39.575Z,58.88
2023-04-09T20:40:07.098Z,58.84
2023-04-09T20:42:33.921Z,59.00
2023-04-09T20:45:02.003Z,58.69
2023-04-09T20:47:30.359Z,58.56
2023-04-09T20:49:59.968Z,58.59
2023-04-09T20:52:31.507Z,58.74
2023-04-09T20:54:58.775Z,58.75
2023-04-09T20:57:26.196Z,58.76
2023-04-09T20:59:54.003Z,58.91
2023-04-09T21:02:22.147Z,59.38
2023-04-09T21:04:50.408Z,59.45
2023-04-09T21:07:17.411Z,59.29
2023-04-09T21:09:44.224Z,59.19
2023-04-09T21:12:10.990Z,59.22
2023-04-09T21:14:37.689Z,59.26
2023-04-09T21:17:04.557Z,59.35
2023-04-09T21:19:31.648Z,59.14
2023-04-09T21:21:58.449Z,59.22
2023-04-09T21:24:25.301Z,59.31
2023-04-09T21:26:52.621Z,59.52
2023-04-09T21:29:23.397Z,59.11
2023-04-09T21:31:58.045Z,58.97
2023-04-09T21:34:24.965Z,58.70
2023-04-09T21:36:52.797Z,59.24
2023-04-09T21:39:19.532Z,58.68
2023-04-09T21:41:46.851Z,59.34
2023-04-09T21:44:13.555Z,59.47
2023-04-09T21:46:41.784Z,59.49
2023-04-09T21:49:08.767Z,59.51
2023-04-09T21:51:36.087Z,59.76
2023-04-09T21:54:09.685Z,59.89
2023-04-09T21:56:37.123Z,60.22
2023-04-09T21:59:03.883Z,60.03
2023-04-09T22:01:31.674Z,59.74
2023-04-09T22:04:00.524Z,60.08
2023-04-09T22:06:31.072Z,60.06
2023-04-09T22:08:58.572Z,60.12
2023-04-09T22:11:27.859Z,60.13
2023-04-09T22:13:58.086Z,59.93
2023-04-09T22:16:26.335Z,60.10
2023-04-09T22:18:54.729Z,60.09
2023-04-09T22:21:22.456Z,59.87
2023-04-09T22:23:49.209Z,59.83
2023-04-09T22:26:15.840Z,59.74
2023-04-09T22:28:42.739Z,59.67
2023-04-09T22:31:09.521Z,59.57
2023-04-09T22:33:36.688Z,59.89
2023-04-09T22:36:03.546Z,59.70
2023-04-09T22:38:30.441Z,59.40
2023-04-09T22:40:57.194Z,59.63
2023-04-09T22:43:24.027Z,59.60
2023-04-09T22:45:54.943Z,59.33
2023-04-09T22:48:23.142Z,59.56
2023-04-09T22:50:50.477Z,59.67
2023-04-09T22:53:20.856Z,59.56
2023-04-09T22:55:51.315Z,59.56
2023-04-09T22:58:18.966Z,59.66
2023-04-09T23:00:47.494Z,59.69
2023-04-09T23:03:14.529Z,59.49
2023-04-09T23:05:42.075Z,59.61
2023-04-09T23:08:09.789Z,59.56
2023-04-09T23:10:36.444Z,59.49
2023-04-09T23:13:03.404Z,59.77
2023-04-09T23:15:30.144Z,59.39
2023-04-09T23:17:57.013Z,59.64
2023-04-09T23:20:23.891Z,59.54
2023-04-09T23:22:50.634Z,59.69
2023-04-09T23:25:17.935Z,59.61
2023-04-09T23:27:44.973Z,59.65
2023-04-09T23:30:16.803Z,59.90
2023-04-09T23:32:52.177Z,59.97
2023-04-09T23:35:20.417Z,59.86
2023-04-09T23:37:50.648Z,59.96
2023-04-09T23:40:20.457Z,59.43
2023-04-09T23:42:49.061Z,59.54
2023-04-09T23:45:16.275Z,59.89
2023-04-09T23:47:42.999Z,60.04
2023-04-09T23:50:10.043Z,59.88
2023-04-09T23:52:38.297Z,60.02
2023-04-09T23:55:09.642Z,60.20
2023-04-09T23:57:36.584Z,59.96
